createdAt,value
2022-07-28T00:00:01.272Z,16.09
2022-07-28T00:01:01.248Z,16.14
2022-07-28T00:02:01.332Z,16.03
2022-07-28T00:03:01.306Z,16.09
2022-07-28T00:04:01.219Z,16.23
2022-07-28T00:05:01.230Z,16.22
2022-07-28T00:06:01.195Z,16.23
2022-07-28T00:07:01.187Z,16.18
2022-07-28T00:08:01.175Z,16.20
2022-07-28T00:09:01.172Z,16.20
2022-07-28T00:10:01.275Z,16.14
2022-07-28T00:11:01.157Z,16.20
2022-07-28T00:12:01.130Z,16.20
2022-07-28T00:13:01.118Z,16.20
2022-07-28T00:14:01.102Z,16.20
2022-07-28T00:15:01.108Z,16.25
2022-07-28T00:16:01.158Z,16.23
2022-07-28T00:17:01.067Z,16.26
2022-07-28T00:18:01.083Z,16.20
2022-07-28T00:19:01.046Z,16.30
2022-07-28T00:20:01.034Z,16.25
2022-07-28T00:21:01.037Z,16.22
2022-07-28T00:22:01.011Z,16.26
2022-07-28T00:23:01.002Z,16.16
2022-07-28T00:24:00.989Z,16.26
2022-07-28T00:25:00.991Z,16.23
2022-07-28T00:26:00.991Z,16.26
2022-07-28T00:27:00.964Z,16.27
2022-07-28T00:28:00.955Z,16.27
2022-07-28T00:29:00.939Z,16.30
2022-07-28T00:30:00.926Z,16.23
2022-07-28T00:31:05.619Z,16.16
2022-07-28T00:32:01.961Z,16.22
2022-07-28T00:33:00.898Z,16.26
2022-07-28T00:34:00.894Z,16.23
2022-07-28T00:35:00.877Z,16.23
2022-07-28T00:36:00.871Z,16.27
2022-07-28T00:37:00.872Z,16.18
2022-07-28T00:38:01.842Z,16.23
2022-07-28T00:39:00.834Z,16.27
2022-07-28T00:40:00.814Z,16.22
2022-07-28T00:41:00.804Z,16.31
2022-07-28T00:42:00.815Z,16.23
2022-07-28T00:43:00.792Z,16.30
2022-07-28T00:44:00.772Z,16.25
2022-07-28T00:45:00.761Z,16.22
2022-07-28T00:46:00.757Z,16.26
2022-07-28T00:47:00.814Z,16.23
2022-07-28T00:48:00.735Z,16.16
2022-07-28T00:49:00.783Z,16.26
2022-07-28T00:50:00.714Z,16.18
2022-07-28T00:51:00.717Z,16.20
2022-07-28T00:52:00.702Z,16.25
2022-07-28T00:53:00.677Z,16.20
2022-07-28T00:54:00.670Z,16.06
2022-07-28T00:55:00.654Z,16.15
2022-07-28T00:56:05.919Z,16.15
2022-07-28T00:57:01.649Z,16.15
2022-07-28T00:58:00.624Z,16.16
2022-07-28T00:59:00.603Z,16.16
2022-07-28T01:00:00.600Z,16.11
2022-07-28T01:01:00.645Z,16.06
2022-07-28T01:02:00.782Z,16.15
2022-07-28T01:03:00.648Z,16.09
2022-07-28T01:04:00.546Z,16.11
2022-07-28T01:05:00.543Z,16.12
2022-07-28T01:06:00.527Z,16.06
2022-07-28T01:07:00.539Z,16.09
2022-07-28T01:08:00.514Z,16.07
2022-07-28T01:09:00.492Z,16.09
2022-07-28T01:10:00.493Z,15.93
2022-07-28T01:11:00.469Z,15.97
2022-07-28T01:12:00.481Z,16.06
2022-07-28T01:13:00.449Z,15.99
2022-07-28T01:14:00.436Z,15.96
2022-07-28T01:15:00.432Z,15.97
2022-07-28T01:16:00.492Z,16.03
2022-07-28T01:17:00.426Z,15.92
2022-07-28T01:18:00.392Z,15.97
2022-07-28T01:19:00.390Z,15.92
2022-07-28T01:20:00.387Z,16.01
2022-07-28T01:21:00.369Z,15.88
2022-07-28T01:22:00.362Z,15.96
2022-07-28T01:23:00.338Z,15.92
2022-07-28T01:24:00.332Z,15.93
2022-07-28T01:25:00.323Z,15.88
2022-07-28T01:26:00.305Z,15.85
2022-07-28T01:27:00.315Z,15.94
2022-07-28T01:28:00.283Z,15.84
2022-07-28T01:29:00.279Z,15.82
2022-07-28T01:30:00.265Z,15.86
2022-07-28T01:31:00.316Z,15.82
2022-07-28T01:32:00.257Z,15.85
2022-07-28T01:33:00.231Z,15.82
2022-07-28T01:34:00.220Z,15.78
2022-07-28T01:35:00.217Z,15.78
2022-07-28T01:36:00.199Z,15.70
2022-07-28T01:37:00.189Z,15.86
2022-07-28T01:39:21.477Z,15.85
2022-07-28T01:40:09.955Z,15.81
2022-07-28T01:41:09.938Z,15.75
2022-07-28T01:42:09.938Z,15.74
2022-07-28T01:43:13.088Z,15.72
2022-07-28T01:44:09.956Z,15.72
2022-07-28T01:45:09.894Z,15.78
2022-07-28T01:46:09.928Z,15.75
2022-07-28T01:47:09.879Z,15.70
2022-07-28T01:48:09.860Z,15.72
2022-07-28T01:49:09.926Z,15.75
2022-07-28T01:50:09.849Z,15.60
2022-07-28T01:51:09.833Z,15.56
2022-07-28T01:52:09.829Z,15.57
2022-07-28T01:53:09.811Z,15.61
2022-07-28T01:54:09.830Z,15.67
2022-07-28T01:55:09.790Z,15.63
2022-07-28T01:56:09.777Z,15.64
2022-07-28T01:57:09.772Z,15.61
2022-07-28T01:58:09.761Z,15.61
2022-07-28T01:59:09.766Z,15.56
2022-07-28T02:00:09.736Z,15.59
2022-07-28T02:01:09.804Z,15.49
2022-07-28T02:02:09.855Z,15.49
2022-07-28T02:03:09.700Z,15.57
2022-07-28T02:04:09.814Z,15.57
2022-07-28T02:05:09.741Z,15.49
2022-07-28T02:06:09.665Z,15.51
2022-07-28T02:07:09.673Z,15.48
2022-07-28T02:08:09.648Z,15.64
2022-07-28T02:09:09.646Z,15.52
2022-07-28T02:10:09.626Z,15.59
2022-07-28T02:11:10.019Z,15.56
2022-07-28T02:12:09.602Z,15.56
2022-07-28T02:13:09.591Z,15.54
2022-07-28T02:14:09.596Z,15.52
2022-07-28T02:15:09.565Z,15.45
2022-07-28T02:16:09.608Z,15.46
2022-07-28T02:17:09.541Z,15.43
2022-07-28T02:18:09.541Z,15.42
2022-07-28T02:19:09.541Z,15.49
2022-07-28T02:20:09.508Z,15.52
2022-07-28T02:21:09.503Z,15.45
2022-07-28T02:22:09.492Z,15.52
2022-07-28T02:23:09.485Z,15.36
2022-07-28T02:24:09.473Z,15.36
2022-07-28T02:25:09.453Z,15.36
2022-07-28T02:26:09.443Z,15.46
2022-07-28T02:27:09.435Z,15.39
2022-07-28T02:28:09.415Z,15.36
2022-07-28T02:29:22.286Z,15.43
2022-07-28T02:30:10.391Z,15.36
2022-07-28T02:31:09.477Z,15.43
2022-07-28T02:32:26.830Z,15.41
2022-07-28T02:33:10.363Z,15.52
2022-07-28T02:34:09.363Z,15.48
2022-07-28T02:35:09.629Z,15.43
2022-07-28T02:36:09.324Z,15.51
2022-07-28T02:37:09.315Z,15.45
2022-07-28T02:38:09.309Z,15.42
2022-07-28T02:39:09.325Z,15.42
2022-07-28T02:40:09.320Z,15.49
2022-07-28T02:41:09.290Z,15.39
2022-07-28T02:42:09.267Z,15.36
2022-07-28T02:43:09.248Z,15.41
2022-07-28T02:44:09.277Z,15.39
2022-07-28T02:45:09.235Z,15.35
2022-07-28T02:46:09.320Z,15.36
2022-07-28T02:47:09.202Z,15.36
2022-07-28T02:48:09.197Z,15.21
2022-07-28T02:49:09.281Z,15.36
2022-07-28T02:50:09.169Z,15.38
2022-07-28T02:51:09.159Z,15.21
2022-07-28T02:52:09.156Z,15.26
2022-07-28T02:53:14.852Z,15.23
2022-07-28T02:54:10.324Z,15.21
2022-07-28T02:55:09.124Z,15.11
2022-07-28T02:56:09.121Z,15.23
2022-07-28T02:57:09.091Z,15.19
2022-07-28T02:58:09.077Z,15.13
2022-07-28T02:59:09.075Z,15.20
2022-07-28T03:00:09.078Z,15.27
2022-07-28T03:01:09.111Z,15.20
2022-07-28T03:02:09.038Z,15.21
2022-07-28T03:03:09.030Z,15.19
2022-07-28T03:04:09.009Z,15.09
2022-07-28T03:05:11.420Z,15.23
2022-07-28T03:06:08.985Z,15.15
2022-07-28T03:07:08.993Z,15.17
2022-07-28T03:08:08.974Z,15.11
2022-07-28T03:09:08.965Z,15.12
2022-07-28T03:10:08.972Z,15.12
2022-07-28T03:11:08.939Z,15.09
2022-07-28T03:12:08.919Z,14.99
2022-07-28T03:13:08.916Z,15.05
2022-07-28T03:14:08.897Z,15.08
2022-07-28T03:15:08.917Z,15.02
2022-07-28T03:16:08.882Z,15.01
2022-07-28T03:17:09.009Z,14.93
2022-07-28T03:18:08.866Z,14.88
2022-07-28T03:19:08.849Z,14.90
2022-07-28T03:20:08.877Z,14.93
2022-07-28T03:21:08.822Z,14.95
2022-07-28T03:22:10.570Z,14.91
2022-07-28T03:23:08.802Z,14.80
2022-07-28T03:24:08.799Z,14.94
2022-07-28T03:25:08.779Z,14.83
2022-07-28T03:26:08.779Z,14.86
2022-07-28T03:27:08.749Z,14.80
2022-07-28T03:28:08.740Z,14.74
2022-07-28T03:29:08.729Z,14.78
2022-07-28T03:30:08.728Z,14.74
2022-07-28T03:31:08.794Z,14.74
2022-07-28T03:32:08.694Z,14.68
2022-07-28T03:33:08.682Z,14.78
2022-07-28T03:34:08.680Z,14.72
2022-07-28T03:35:08.661Z,14.60
2022-07-28T03:36:08.685Z,14.56
2022-07-28T03:37:08.655Z,14.61
2022-07-28T03:38:08.627Z,14.54
2022-07-28T03:39:08.629Z,14.61
2022-07-28T03:40:08.606Z,14.46
2022-07-28T03:41:08.605Z,14.56
2022-07-28T03:42:08.587Z,14.50
2022-07-28T03:43:08.570Z,14.39
2022-07-28T03:44:08.559Z,14.60
2022-07-28T03:45:08.548Z,14.53
2022-07-28T03:46:12.997Z,14.46
2022-07-28T03:47:08.524Z,14.53
2022-07-28T03:48:08.523Z,14.49
2022-07-28T03:49:08.625Z,14.38
2022-07-28T03:50:08.500Z,14.56
2022-07-28T03:51:08.502Z,14.44
2022-07-28T03:52:08.468Z,14.31
2022-07-28T03:53:08.463Z,14.44
2022-07-28T03:54:08.464Z,14.31
2022-07-28T03:55:08.442Z,14.39
2022-07-28T03:56:08.436Z,14.43
2022-07-28T03:57:08.412Z,14.37
2022-07-28T03:58:08.410Z,14.42
2022-07-28T03:59:08.395Z,14.37
2022-07-28T04:00:09.907Z,14.27
2022-07-28T04:01:08.457Z,14.24
2022-07-28T04:02:08.468Z,14.35
2022-07-28T04:03:35.693Z,14.25
2022-07-28T04:04:09.337Z,14.24
2022-07-28T04:05:08.333Z,14.25
2022-07-28T04:06:08.328Z,14.28
2022-07-28T04:07:08.308Z,14.35
2022-07-28T04:08:08.297Z,14.29
2022-07-28T04:09:08.279Z,14.19
2022-07-28T04:10:08.269Z,14.27
2022-07-28T04:11:08.280Z,14.16
2022-07-28T04:12:08.254Z,14.35
2022-07-28T04:13:08.232Z,14.21
2022-07-28T04:14:10.989Z,14.29
2022-07-28T04:15:09.222Z,14.29
2022-07-28T04:16:08.207Z,14.28
2022-07-28T04:17:08.274Z,14.28
2022-07-28T04:18:08.187Z,14.32
2022-07-28T04:19:08.166Z,14.28
2022-07-28T04:20:08.158Z,14.31
2022-07-28T04:21:08.155Z,14.29
2022-07-28T04:22:08.152Z,14.28
2022-07-28T04:23:08.125Z,14.32
2022-07-28T04:24:08.117Z,14.29
2022-07-28T04:25:08.101Z,14.27
2022-07-28T04:26:08.096Z,14.21
2022-07-28T04:27:08.089Z,14.39
2022-07-28T04:28:08.073Z,14.27
2022-07-28T04:29:08.055Z,14.28
2022-07-28T04:30:08.053Z,14.31
2022-07-28T04:31:08.104Z,14.35
2022-07-28T04:32:08.035Z,14.31
2022-07-28T04:34:39.337Z,14.35
2022-07-28T04:35:17.894Z,14.37
2022-07-28T04:37:27.622Z,14.34
2022-07-28T04:38:28.596Z,14.38
2022-07-28T04:39:27.587Z,14.29
2022-07-28T04:40:27.579Z,14.32
2022-07-28T04:41:27.566Z,14.35
2022-07-28T04:42:27.564Z,14.24
2022-07-28T04:43:27.541Z,14.34
2022-07-28T04:44:27.540Z,14.38
2022-07-28T04:45:27.541Z,14.27
2022-07-28T04:46:27.546Z,14.42
2022-07-28T04:47:27.509Z,14.39
2022-07-28T04:48:27.489Z,14.37
2022-07-28T04:49:27.481Z,14.34
2022-07-28T04:50:27.465Z,14.44
2022-07-28T04:51:27.469Z,14.53
2022-07-28T04:52:27.466Z,14.53
2022-07-28T04:53:27.436Z,14.54
2022-07-28T04:54:27.422Z,14.64
2022-07-28T04:55:27.421Z,14.64
2022-07-28T04:56:27.407Z,14.71
2022-07-28T04:57:27.413Z,14.74
2022-07-28T04:58:27.385Z,14.75
2022-07-28T04:59:27.372Z,14.94
2022-07-28T05:00:27.357Z,14.93
2022-07-28T05:01:27.420Z,14.91
2022-07-28T05:02:27.333Z,14.98
2022-07-28T05:03:28.753Z,14.95
2022-07-28T05:04:27.377Z,15.02
2022-07-28T05:05:27.303Z,15.01
2022-07-28T05:06:27.283Z,15.08
2022-07-28T05:07:27.273Z,15.15
2022-07-28T05:08:27.274Z,15.27
2022-07-28T05:09:27.259Z,15.27
2022-07-28T05:10:27.247Z,15.30
2022-07-28T05:11:27.240Z,15.35
2022-07-28T05:12:27.226Z,15.45
2022-07-28T05:13:33.373Z,15.48
2022-07-28T05:14:28.203Z,15.43
2022-07-28T05:15:27.192Z,15.56
2022-07-28T05:16:27.228Z,15.48
2022-07-28T05:17:27.168Z,15.48
2022-07-28T05:18:27.164Z,15.56
2022-07-28T05:19:27.139Z,15.64
2022-07-28T05:20:27.133Z,15.57
2022-07-28T05:21:27.117Z,15.57
2022-07-28T05:22:27.111Z,15.68
2022-07-28T05:23:27.116Z,15.75
2022-07-28T05:24:27.091Z,15.75
2022-07-28T05:25:27.070Z,15.72
2022-07-28T05:26:27.066Z,15.93
2022-07-28T05:27:27.048Z,15.76
2022-07-28T05:28:27.037Z,15.89
2022-07-28T05:29:37.645Z,15.92
2022-07-28T05:30:28.023Z,15.85
2022-07-28T05:31:27.050Z,15.92
2022-07-28T05:32:27.029Z,15.96
2022-07-28T05:33:30.199Z,15.97
2022-07-28T05:34:27.986Z,16.01
2022-07-28T05:35:26.962Z,16.06
2022-07-28T05:36:26.953Z,16.03
2022-07-28T05:37:26.942Z,15.94
2022-07-28T05:38:26.924Z,16.00
2022-07-28T05:39:26.920Z,15.96
2022-07-28T05:40:26.919Z,16.07
2022-07-28T05:41:26.897Z,16.16
2022-07-28T05:42:26.879Z,16.15
2022-07-28T05:43:26.875Z,16.00
2022-07-28T05:44:26.856Z,16.11
2022-07-28T05:45:26.907Z,16.20
2022-07-28T05:46:26.834Z,16.07
2022-07-28T05:47:26.835Z,16.14
2022-07-28T05:48:26.816Z,16.27
2022-07-28T05:49:26.850Z,16.18
2022-07-28T05:50:26.803Z,16.20
2022-07-28T05:51:26.781Z,16.31
2022-07-28T05:52:26.774Z,16.22
2022-07-28T05:53:26.759Z,16.37
2022-07-28T05:54:26.744Z,16.26
2022-07-28T05:55:26.755Z,16.30
2022-07-28T05:56:26.725Z,16.38
2022-07-28T05:57:26.729Z,16.40
2022-07-28T05:58:26.700Z,16.50
2022-07-28T05:59:26.694Z,16.49
2022-07-28T06:00:26.676Z,16.59
2022-07-28T06:01:26.748Z,16.52
2022-07-28T06:02:26.716Z,16.59
2022-07-28T06:03:26.648Z,16.80
2022-07-28T06:04:28.286Z,17.00
2022-07-28T06:05:26.627Z,17.18
2022-07-28T06:06:26.622Z,17.26
2022-07-28T06:07:42.665Z,17.32
2022-07-28T06:08:27.588Z,17.33
2022-07-28T06:09:26.574Z,17.54
2022-07-28T06:10:26.564Z,17.67
2022-07-28T06:11:26.571Z,17.82
2022-07-28T06:12:26.550Z,17.89
2022-07-28T06:13:26.529Z,18.09
2022-07-28T06:14:26.526Z,18.39
2022-07-28T06:15:26.524Z,18.59
2022-07-28T06:16:26.590Z,18.84
2022-07-28T06:17:26.492Z,18.95
2022-07-28T06:18:26.475Z,19.29
2022-07-28T06:19:26.471Z,19.53
2022-07-28T06:20:26.532Z,19.55
2022-07-28T06:21:26.464Z,19.66
2022-07-28T06:22:26.438Z,19.79
2022-07-28T06:23:26.424Z,19.60
2022-07-28T06:24:26.407Z,19.61
2022-07-28T06:25:26.404Z,19.63
2022-07-28T06:26:26.401Z,19.63
2022-07-28T06:27:26.394Z,19.70
2022-07-28T06:28:26.363Z,19.60
2022-07-28T06:29:26.354Z,19.65
2022-07-28T06:30:26.446Z,19.61
2022-07-28T06:31:26.421Z,19.65
2022-07-28T06:32:26.332Z,19.70
2022-07-28T06:33:26.320Z,19.61
2022-07-28T06:34:26.312Z,19.63
2022-07-28T06:35:26.302Z,19.55
2022-07-28T06:36:26.290Z,19.63
2022-07-28T06:37:26.278Z,19.53
2022-07-28T06:38:26.257Z,19.51
2022-07-28T06:39:26.240Z,19.43
2022-07-28T06:40:26.312Z,19.42
2022-07-28T06:41:26.230Z,19.33
2022-07-28T06:42:26.208Z,19.21
2022-07-28T06:43:26.219Z,19.01
2022-07-28T06:44:42.616Z,18.90
2022-07-28T06:45:27.185Z,18.87
2022-07-28T06:46:26.231Z,19.02
2022-07-28T06:47:26.192Z,19.06
2022-07-28T06:48:29.242Z,19.15
2022-07-28T06:49:26.185Z,19.33
2022-07-28T06:50:27.117Z,19.60
2022-07-28T06:51:26.122Z,20.03
2022-07-28T06:52:26.104Z,20.42
2022-07-28T06:53:26.099Z,20.89
2022-07-28T06:54:26.080Z,21.48
2022-07-28T06:55:26.076Z,21.91
2022-07-28T06:56:27.066Z,22.34
2022-07-28T06:57:28.080Z,22.74
2022-07-28T06:58:27.063Z,23.08
2022-07-28T06:59:26.051Z,23.52
2022-07-28T07:00:26.046Z,23.77
2022-07-28T07:01:26.057Z,23.86
2022-07-28T07:02:28.143Z,24.02
2022-07-28T07:03:25.987Z,24.24
2022-07-28T07:04:26.091Z,24.37
2022-07-28T07:05:25.964Z,24.27
2022-07-28T07:06:25.950Z,24.20
2022-07-28T07:07:25.938Z,24.05
2022-07-28T07:08:25.943Z,23.90
2022-07-28T07:09:25.915Z,23.86
2022-07-28T07:10:26.023Z,23.85
2022-07-28T07:11:25.886Z,23.65
2022-07-28T07:12:25.884Z,23.52
2022-07-28T07:13:25.884Z,23.26
2022-07-28T07:14:25.855Z,23.15
2022-07-28T07:15:25.849Z,22.89
2022-07-28T07:16:25.877Z,22.54
2022-07-28T07:17:25.820Z,22.44
2022-07-28T07:18:25.814Z,22.23
2022-07-28T07:19:25.810Z,22.09
2022-07-28T07:20:25.859Z,21.81
2022-07-28T07:21:25.782Z,21.64
2022-07-28T07:22:25.806Z,21.44
2022-07-28T07:23:25.756Z,21.57
2022-07-28T07:24:25.770Z,21.79
2022-07-28T07:25:25.753Z,21.81
2022-07-28T07:26:25.723Z,21.85
2022-07-28T07:27:25.712Z,21.71
2022-07-28T07:28:25.711Z,21.69
2022-07-28T07:29:25.691Z,21.76
2022-07-28T07:30:26.702Z,21.72
2022-07-28T07:31:25.716Z,21.75
2022-07-28T07:32:25.658Z,21.85
2022-07-28T07:33:25.648Z,21.82
2022-07-28T07:34:25.642Z,22.01
2022-07-28T07:35:25.645Z,22.06
2022-07-28T07:36:25.621Z,21.79
2022-07-28T07:37:25.611Z,21.88
2022-07-28T07:38:29.156Z,21.82
2022-07-28T07:39:25.590Z,21.82
2022-07-28T07:40:25.603Z,21.53
2022-07-28T07:41:25.566Z,21.35
2022-07-28T07:42:25.547Z,21.17
2022-07-28T07:43:25.552Z,21.06
2022-07-28T07:44:25.525Z,20.91
2022-07-28T07:45:25.519Z,20.81
2022-07-28T07:46:25.552Z,20.93
2022-07-28T07:47:25.494Z,21.05
2022-07-28T07:48:25.481Z,21.13
2022-07-28T07:49:25.560Z,21.14
2022-07-28T07:50:26.456Z,21.23
2022-07-28T07:51:25.459Z,21.29
2022-07-28T07:52:25.444Z,21.27
2022-07-28T07:53:25.432Z,21.50
2022-07-28T07:54:25.423Z,21.64
2022-07-28T07:55:25.418Z,21.74
2022-07-28T07:56:25.405Z,21.76
2022-07-28T07:57:25.387Z,21.66
2022-07-28T07:58:25.375Z,21.69
2022-07-28T07:59:25.368Z,21.81
2022-07-28T08:00:29.116Z,21.79
2022-07-28T08:01:25.397Z,21.76
2022-07-28T08:02:25.335Z,21.99
2022-07-28T08:03:26.414Z,22.12
2022-07-28T08:04:25.545Z,22.32
2022-07-28T08:05:35.077Z,22.50
2022-07-28T08:06:26.888Z,22.69
2022-07-28T08:07:25.282Z,22.87
2022-07-28T08:08:25.268Z,23.02
2022-07-28T08:09:25.309Z,23.05
2022-07-28T08:10:25.249Z,23.04
2022-07-28T08:11:25.222Z,23.02
2022-07-28T08:12:25.682Z,23.14
2022-07-28T08:13:25.200Z,23.35
2022-07-28T08:14:25.199Z,23.34
2022-07-28T08:15:25.181Z,23.31
2022-07-28T08:16:25.292Z,23.23
2022-07-28T08:17:26.243Z,23.20
2022-07-28T08:20:44.908Z,23.05
2022-07-28T08:21:44.882Z,23.08
2022-07-28T08:22:44.877Z,23.02
2022-07-28T08:23:44.867Z,23.11
2022-07-28T08:24:44.846Z,23.22
2022-07-28T08:25:44.839Z,23.42
2022-07-28T08:26:44.823Z,23.82
2022-07-28T08:27:44.809Z,24.34
2022-07-28T08:28:44.792Z,25.02
2022-07-28T08:32:04.381Z,25.89
2022-07-28T08:33:04.367Z,25.62
2022-07-28T08:34:04.369Z,25.38
2022-07-28T08:35:31.546Z,25.17
2022-07-28T08:36:05.338Z,24.98
2022-07-28T08:37:04.328Z,24.71
2022-07-28T08:38:04.319Z,24.53
2022-07-28T08:39:04.327Z,24.47
2022-07-28T08:40:04.301Z,24.50
2022-07-28T08:41:04.291Z,24.63
2022-07-28T08:42:04.287Z,24.87
2022-07-28T08:43:04.292Z,25.05
2022-07-28T08:44:04.257Z,25.12
2022-07-28T08:45:04.256Z,25.16
2022-07-28T08:46:04.295Z,25.17
2022-07-28T08:47:04.285Z,25.16
2022-07-28T08:48:09.227Z,25.15
2022-07-28T08:49:05.268Z,24.98
2022-07-28T08:50:04.205Z,25.05
2022-07-28T08:51:04.179Z,25.09
2022-07-28T08:52:04.175Z,25.24
2022-07-28T08:53:04.159Z,25.34
2022-07-28T08:54:04.151Z,25.47
2022-07-28T08:55:04.153Z,25.56
2022-07-28T08:56:04.118Z,25.53
2022-07-28T08:57:04.106Z,25.53
2022-07-28T08:58:04.101Z,25.64
2022-07-28T08:59:04.099Z,25.69
2022-07-28T09:00:04.082Z,25.79
2022-07-28T09:01:04.085Z,25.86
2022-07-28T09:02:04.172Z,26.11
2022-07-28T09:03:04.109Z,26.62
2022-07-28T09:04:04.035Z,27.14
2022-07-28T09:05:04.034Z,27.79
2022-07-28T09:06:04.033Z,28.65
2022-07-28T09:07:04.004Z,29.28
2022-07-28T09:08:03.994Z,29.74
2022-07-28T09:09:03.988Z,30.24
2022-07-28T09:10:03.992Z,30.86
2022-07-28T09:11:03.976Z,31.04
2022-07-28T09:12:03.945Z,31.12
2022-07-28T09:13:03.933Z,31.08
2022-07-28T09:14:03.923Z,30.74
2022-07-28T09:15:03.928Z,30.56
2022-07-28T09:16:03.998Z,30.54
2022-07-28T09:17:05.490Z,30.90
2022-07-28T09:18:03.887Z,31.49
2022-07-28T09:19:03.881Z,31.93
2022-07-28T09:20:08.833Z,32.42
2022-07-28T09:21:04.865Z,32.71
2022-07-28T09:22:03.848Z,32.66
2022-07-28T09:23:03.827Z,32.36
2022-07-28T09:24:03.837Z,31.93
2022-07-28T09:25:03.813Z,31.77
2022-07-28T09:26:08.423Z,31.84
2022-07-28T09:27:04.811Z,31.96
2022-07-28T09:28:03.779Z,31.98
2022-07-28T09:29:03.783Z,32.05
2022-07-28T09:30:03.756Z,32.33
2022-07-28T09:31:03.856Z,32.57
2022-07-28T09:32:03.837Z,32.67
2022-07-28T09:33:03.726Z,32.61
2022-07-28T09:34:03.726Z,32.36
2022-07-28T09:35:03.722Z,32.47
2022-07-28T09:36:03.707Z,32.66
2022-07-28T09:37:03.700Z,33.11
2022-07-28T09:38:03.680Z,33.07
2022-07-28T09:39:03.676Z,33.31
2022-07-28T09:40:04.108Z,33.60
2022-07-28T09:41:03.657Z,33.86
2022-07-28T09:42:03.667Z,34.02
2022-07-28T09:43:03.646Z,33.94
2022-07-28T09:44:03.628Z,33.43
2022-07-28T09:45:21.883Z,33.36
2022-07-28T09:46:04.731Z,33.55
2022-07-28T09:47:03.799Z,34.05
2022-07-28T09:48:03.802Z,34.58
2022-07-28T09:49:03.817Z,35.01
2022-07-28T09:50:03.683Z,35.01
2022-07-28T09:51:03.550Z,34.83
2022-07-28T09:52:03.593Z,34.96
2022-07-28T09:53:03.529Z,35.29
2022-07-28T09:54:03.529Z,35.50
2022-07-28T09:55:03.519Z,35.79
2022-07-28T09:56:03.508Z,36.14
2022-07-28T09:57:03.521Z,36.29
2022-07-28T09:58:03.500Z,36.56
2022-07-28T09:59:03.495Z,36.41
2022-07-28T10:00:03.462Z,36.23
2022-07-28T10:01:03.455Z,36.06
2022-07-28T10:02:03.520Z,36.20
2022-07-28T10:03:03.565Z,36.48
2022-07-28T10:04:03.430Z,36.48
2022-07-28T10:05:03.420Z,36.61
2022-07-28T10:06:03.402Z,36.73
2022-07-28T10:07:03.400Z,36.82
2022-07-28T10:08:03.414Z,36.91
2022-07-28T10:09:03.374Z,37.07
2022-07-28T10:10:03.374Z,37.13
2022-07-28T10:11:03.354Z,37.36
2022-07-28T10:12:03.357Z,37.43
2022-07-28T10:13:03.337Z,37.48
2022-07-28T10:14:03.343Z,37.51
2022-07-28T10:15:03.321Z,37.74
2022-07-28T10:16:03.396Z,37.78
2022-07-28T10:17:06.127Z,37.74
2022-07-28T10:18:03.292Z,37.86
2022-07-28T10:19:03.295Z,37.93
2022-07-28T10:20:03.275Z,38.23
2022-07-28T10:21:03.266Z,37.99
2022-07-28T10:22:03.261Z,37.78
2022-07-28T10:23:03.255Z,37.74
2022-07-28T10:24:03.232Z,37.67
2022-07-28T10:25:03.244Z,37.73
2022-07-28T10:26:03.210Z,36.99
2022-07-28T10:27:04.218Z,36.92
2022-07-28T10:28:03.198Z,36.82
2022-07-28T10:29:03.190Z,36.83
2022-07-28T10:30:03.185Z,37.05
2022-07-28T10:31:03.273Z,36.61
2022-07-28T10:32:03.164Z,36.11
2022-07-28T10:33:03.161Z,35.92
2022-07-28T10:34:03.135Z,35.93
2022-07-28T10:35:03.151Z,35.91
2022-07-28T10:36:03.129Z,35.92
2022-07-28T10:37:03.114Z,35.95
2022-07-28T10:38:03.105Z,35.76
2022-07-28T10:39:03.092Z,35.73
2022-07-28T10:40:07.776Z,35.97
2022-07-28T10:41:04.080Z,35.85
2022-07-28T10:42:03.072Z,35.62
2022-07-28T10:43:03.055Z,35.54
2022-07-28T10:44:03.052Z,34.96
2022-07-28T10:45:03.052Z,34.61
2022-07-28T10:46:08.117Z,34.31
2022-07-28T10:47:04.076Z,34.22
2022-07-28T10:48:03.016Z,34.04
2022-07-28T10:49:03.564Z,33.83
2022-07-28T10:50:03.006Z,33.68
2022-07-28T10:51:02.991Z,33.46
2022-07-28T10:52:08.754Z,33.29
2022-07-28T10:53:03.969Z,33.07
2022-07-28T10:54:02.958Z,32.66
2022-07-28T10:55:02.957Z,32.55
2022-07-28T10:56:02.931Z,32.40
2022-07-28T10:57:04.705Z,32.40
2022-07-28T10:58:11.609Z,32.32
2022-07-28T10:59:05.041Z,31.67
2022-07-28T11:00:12.854Z,31.28
2022-07-28T11:01:06.358Z,31.30
2022-07-28T11:02:03.038Z,31.17
2022-07-28T11:03:13.515Z,31.20
2022-07-28T11:04:03.858Z,31.27
2022-07-28T11:05:02.854Z,31.50
2022-07-28T11:06:02.860Z,31.67
2022-07-28T11:07:02.840Z,31.67
2022-07-28T11:08:02.841Z,31.75
2022-07-28T11:09:02.819Z,31.77
2022-07-28T11:10:02.810Z,31.72
2022-07-28T11:11:08.171Z,31.43
2022-07-28T11:12:03.781Z,31.12
2022-07-28T11:13:04.133Z,30.98
2022-07-28T11:14:02.764Z,30.83
2022-07-28T11:15:16.608Z,30.47
2022-07-28T11:16:03.757Z,30.21
2022-07-28T11:17:02.765Z,29.89
2022-07-28T11:18:02.753Z,29.35
2022-07-28T11:19:04.763Z,29.49
2022-07-28T11:20:30.858Z,29.31
2022-07-28T11:21:03.718Z,29.38
2022-07-28T11:22:02.694Z,29.44
2022-07-28T11:23:02.685Z,29.59
2022-07-28T11:24:02.670Z,29.63
2022-07-28T11:25:18.048Z,29.63
2022-07-28T11:26:03.649Z,29.66
2022-07-28T11:27:04.223Z,29.65
2022-07-28T11:28:02.636Z,29.60
2022-07-28T11:29:02.617Z,29.84
2022-07-28T11:30:02.616Z,30.14
2022-07-28T11:31:02.646Z,30.26
2022-07-28T11:32:02.610Z,30.34
2022-07-28T11:33:02.578Z,30.40
2022-07-28T11:34:02.570Z,30.56
2022-07-28T11:35:02.556Z,30.75
2022-07-28T11:36:02.558Z,30.74
2022-07-28T11:37:02.559Z,30.90
2022-07-28T11:38:02.631Z,31.08
2022-07-28T11:39:02.516Z,31.18
2022-07-28T11:40:02.511Z,31.13
2022-07-28T11:41:02.501Z,31.11
2022-07-28T11:42:02.491Z,31.01
2022-07-28T11:43:02.500Z,30.91
2022-07-28T11:44:02.470Z,30.93
2022-07-28T11:45:02.462Z,31.11
2022-07-28T11:46:02.570Z,30.98
2022-07-28T11:47:02.441Z,31.02
2022-07-28T11:48:02.429Z,31.05
2022-07-28T11:49:02.523Z,30.94
2022-07-28T11:50:02.403Z,30.96
2022-07-28T11:51:02.412Z,30.98
2022-07-28T11:52:02.395Z,30.99
2022-07-28T11:53:02.382Z,30.84
2022-07-28T11:54:02.376Z,30.84
2022-07-28T11:55:02.354Z,30.96
2022-07-28T11:56:03.247Z,31.21
2022-07-28T11:57:02.338Z,31.36
2022-07-28T11:58:02.332Z,31.57
2022-07-28T11:59:02.356Z,31.53
2022-07-28T12:00:02.349Z,31.65
2022-07-28T12:01:02.300Z,31.43
2022-07-28T12:02:02.314Z,31.33
2022-07-28T12:03:02.279Z,31.38
2022-07-28T12:04:02.284Z,30.91
2022-07-28T12:05:02.438Z,30.59
2022-07-28T12:06:02.247Z,30.56
2022-07-28T12:07:02.237Z,30.47
2022-07-28T12:08:02.217Z,30.34
2022-07-28T12:09:02.479Z,30.40
2022-07-28T12:10:02.292Z,30.36
2022-07-28T12:11:02.189Z,30.37
2022-07-28T12:12:02.184Z,30.40
2022-07-28T12:13:02.167Z,30.40
2022-07-28T12:14:02.164Z,30.50
2022-07-28T12:15:06.733Z,30.50
2022-07-28T12:16:03.133Z,30.56
2022-07-28T12:17:02.221Z,30.62
2022-07-28T12:18:02.119Z,30.65
2022-07-28T12:19:02.102Z,30.64
2022-07-28T12:20:02.109Z,30.71
2022-07-28T12:21:05.268Z,30.75
2022-07-28T12:22:02.078Z,30.61
2022-07-28T12:23:02.069Z,30.54
2022-07-28T12:24:02.049Z,30.24
2022-07-28T12:25:02.136Z,30.14
2022-07-28T12:26:02.036Z,29.86
2022-07-28T12:27:02.019Z,29.56
2022-07-28T12:28:02.254Z,29.43
2022-07-28T12:29:01.999Z,29.41
2022-07-28T12:30:02.067Z,29.40
2022-07-28T12:31:01.997Z,29.29
2022-07-28T12:36:41.194Z,28.48
2022-07-28T12:37:41.166Z,28.36
2022-07-28T12:38:41.155Z,28.35
2022-07-28T12:39:41.151Z,28.32
2022-07-28T12:40:41.146Z,28.40
2022-07-28T12:41:41.123Z,28.38
2022-07-28T12:42:41.111Z,28.36
2022-07-28T12:43:41.114Z,28.29
2022-07-28T12:44:41.090Z,28.21
2022-07-28T12:45:41.166Z,28.13
2022-07-28T12:46:41.077Z,28.13
2022-07-28T12:47:41.057Z,28.10
2022-07-28T12:48:41.083Z,27.89
2022-07-28T12:49:41.053Z,27.88
2022-07-28T12:50:41.028Z,27.89
2022-07-28T12:51:41.034Z,27.94
2022-07-28T12:52:41.007Z,28.07
2022-07-28T12:53:40.993Z,28.11
2022-07-28T12:54:40.988Z,28.10
2022-07-28T12:55:40.978Z,28.22
2022-07-28T12:56:40.983Z,28.17
2022-07-28T12:57:47.691Z,28.32
2022-07-28T12:58:41.945Z,28.22
2022-07-28T12:59:40.927Z,28.11
2022-07-28T13:00:40.996Z,28.17
2022-07-28T13:01:40.934Z,28.17
2022-07-28T13:02:41.019Z,28.22
2022-07-28T13:03:40.884Z,28.29
2022-07-28T13:04:41.566Z,28.36